createdAt,value
2018-09-16T00:02:20.260Z,15.73
2018-09-16T00:04:52.388Z,16.10
2018-09-16T00:07:23.888Z,16.13
2018-09-16T00:09:55.786Z,16.13
2018-09-16T00:12:27.326Z,16.67
2018-09-16T00:14:59.152Z,15.93
2018-09-16T00:17:30.486Z,16.33
2018-09-16T00:20:01.209Z,16.20
2018-09-16T00:22:32.417Z,16.43
2018-09-16T00:25:03.739Z,16.43
2018-09-16T00:27:35.684Z,16.67
2018-09-16T00:30:08.792Z,16.57
2018-09-16T00:32:47.340Z,17.20
2018-09-16T00:35:19.445Z,16.47
2018-09-16T00:37:51.042Z,16.90
2018-09-16T00:40:22.462Z,16.07
2018-09-16T00:42:53.130Z,16.77
2018-09-16T00:45:24.537Z,16.40
2018-09-16T00:47:55.130Z,16.40
2018-09-16T00:50:26.770Z,17.83
2018-09-16T00:52:57.964Z,17.00
2018-09-16T00:55:29.199Z,16.50
2018-09-16T00:58:00.606Z,16.20
2018-09-16T01:00:33.708Z,16.90
2018-09-16T01:03:05.116Z,17.20
2018-09-16T01:05:41.587Z,17.57
2018-09-16T01:08:12.990Z,16.50
2018-09-16T01:10:43.698Z,17.87
2018-09-16T01:13:15.050Z,16.53
2018-09-16T01:15:46.903Z,16.40
2018-09-16T01:18:17.985Z,16.03
2018-09-16T01:20:49.526Z,15.70
2018-09-16T01:23:21.387Z,16.50
2018-09-16T01:25:52.755Z,16.30
2018-09-16T01:28:23.405Z,15.73
2018-09-16T01:30:54.006Z,15.03
2018-09-16T01:33:25.102Z,15.47
2018-09-16T01:35:56.985Z,15.23
2018-09-16T01:38:33.535Z,14.57
2018-09-16T01:41:05.104Z,14.83
2018-09-16T01:43:36.256Z,14.47
2018-09-16T01:46:06.694Z,14.50
2018-09-16T01:48:37.986Z,14.90
2018-09-16T01:51:09.822Z,15.03
2018-09-16T01:53:41.641Z,15.03
2018-09-16T01:56:12.716Z,15.40
2018-09-16T01:58:44.508Z,15.53
2018-09-16T02:01:15.439Z,15.07
2018-09-16T02:03:46.417Z,15.53
2018-09-16T02:06:17.673Z,16.17
2018-09-16T02:08:48.832Z,16.17
2018-09-16T02:11:19.900Z,16.23
2018-09-16T02:13:51.415Z,15.93
2018-09-16T02:16:21.990Z,16.90
2018-09-16T02:18:53.426Z,16.73
2018-09-16T02:21:24.692Z,16.47
2018-09-16T02:23:56.128Z,16.37
2018-09-16T02:26:27.539Z,16.23
2018-09-16T02:28:59.019Z,16.90
2018-09-16T02:31:30.237Z,16.23
2018-09-16T02:34:00.147Z,17.23
2018-09-16T02:36:31.940Z,15.97
2018-09-16T02:39:03.639Z,16.37
2018-09-16T02:41:35.120Z,16.93
2018-09-16T02:44:06.049Z,16.83
2018-09-16T02:46:37.335Z,16.17
2018-09-16T02:49:09.289Z,17.07
2018-09-16T02:51:40.613Z,17.00
2018-09-16T02:54:11.831Z,15.93
2018-09-16T02:56:42.872Z,15.77
2018-09-16T02:59:12.984Z,15.40
2018-09-16T03:01:44.269Z,15.37
2018-09-16T03:04:15.658Z,16.07
2018-09-16T03:06:47.277Z,15.00
2018-09-16T03:09:19.332Z,15.33
2018-09-16T03:11:50.637Z,14.03
2018-09-16T03:14:22.162Z,13.90
2018-09-16T03:16:53.757Z,14.13
2018-09-16T03:19:25.585Z,13.60
2018-09-16T03:21:57.493Z,13.70
2018-09-16T03:24:29.051Z,14.13
2018-09-16T03:27:00.841Z,12.83
2018-09-16T03:29:31.861Z,13.83
2018-09-16T03:32:03.750Z,12.03
2018-09-16T03:34:34.708Z,13.10
2018-09-16T03:37:05.713Z,12.70
2018-09-16T03:39:37.237Z,11.83
2018-09-16T03:42:08.761Z,12.90
2018-09-16T03:44:40.311Z,12.33
2018-09-16T03:47:11.798Z,12.53
2018-09-16T03:49:43.641Z,13.07
2018-09-16T03:52:15.211Z,11.87
2018-09-16T03:54:46.720Z,13.23
2018-09-16T03:57:21.134Z,12.30
2018-09-16T03:59:53.295Z,12.77
2018-09-16T04:02:25.383Z,13.03
2018-09-16T04:04:57.380Z,13.20
2018-09-16T04:07:29.089Z,12.30
2018-09-16T04:10:00.684Z,12.47
2018-09-16T04:12:32.800Z,13.13
2018-09-16T04:15:04.803Z,13.67
2018-09-16T04:17:36.902Z,13.30
2018-09-16T04:20:08.704Z,13.60
2018-09-16T04:22:40.660Z,12.90
2018-09-16T04:25:12.325Z,13.87
2018-09-16T04:27:44.041Z,12.97
2018-09-16T04:30:15.880Z,14.23
2018-09-16T04:32:47.859Z,13.07
2018-09-16T04:35:19.817Z,12.83
2018-09-16T04:37:51.600Z,12.60
2018-09-16T04:40:23.338Z,12.53
2018-09-16T04:42:55.254Z,13.80
2018-09-16T04:45:27.373Z,12.40
2018-09-16T04:59:47.676Z,13.07
2018-09-16T05:02:18.191Z,11.77
2018-09-16T05:04:48.766Z,12.00
2018-09-16T05:07:19.021Z,11.93
2018-09-16T05:09:49.321Z,12.17
2018-09-16T05:12:19.363Z,11.97
2018-09-16T05:14:49.588Z,13.40
2018-09-16T05:17:19.630Z,11.77
2018-09-16T05:19:49.882Z,11.43
2018-09-16T05:22:19.977Z,11.33
2018-09-16T05:24:50.441Z,12.13
2018-09-16T05:27:20.589Z,11.00
2018-09-16T05:29:50.911Z,12.83
2018-09-16T05:32:21.006Z,11.63
2018-09-16T05:34:51.010Z,11.70
2018-09-16T05:37:21.240Z,11.17
2018-09-16T05:39:52.031Z,11.63
2018-09-16T05:42:22.283Z,11.40
2018-09-16T05:44:52.770Z,12.20
2018-09-16T05:47:23.046Z,10.07
2018-09-16T05:49:53.594Z,11.13
2018-09-16T05:52:23.671Z,10.90
2018-09-16T05:54:53.957Z,9.60
2018-09-16T05:57:24.244Z,8.93
2018-09-16T05:59:54.856Z,9.77
2018-09-16T06:02:25.029Z,9.17
2018-09-16T06:04:55.572Z,9.47
2018-09-16T06:07:26.589Z,9.00
2018-09-16T06:09:56.917Z,8.80
2018-09-16T06:12:27.024Z,9.73
2018-09-16T06:14:57.110Z,9.10
2018-09-16T06:17:27.499Z,10.30
2018-09-16T06:19:57.802Z,9.00
2018-09-16T06:22:27.999Z,9.30
2018-09-16T06:24:58.658Z,8.77
2018-09-16T06:27:28.869Z,8.30
2018-09-16T06:29:59.053Z,9.00
2018-09-16T06:32:29.221Z,9.43
2018-09-16T06:34:59.537Z,9.03
2018-09-16T06:37:29.897Z,8.27
2018-09-16T06:40:00.426Z,7.87
2018-09-16T06:42:30.621Z,7.23
2018-09-16T06:45:01.131Z,7.63
2018-09-16T06:47:31.232Z,7.27
2018-09-16T06:50:01.572Z,6.20
2018-09-16T06:52:31.815Z,8.73
2018-09-16T06:55:01.970Z,7.87
2018-09-16T06:57:32.478Z,6.23
2018-09-16T07:00:02.898Z,7.73
2018-09-16T07:02:33.167Z,5.37
2018-09-16T07:05:03.270Z,6.77
2018-09-16T07:07:33.641Z,5.93
2018-09-16T07:10:04.196Z,6.83
2018-09-16T07:12:34.334Z,6.03
2018-09-16T07:15:04.285Z,4.80
2018-09-16T07:17:34.184Z,5.53
2018-09-16T07:20:04.244Z,5.90
2018-09-16T07:22:34.340Z,8.23
2018-09-16T07:25:04.373Z,7.07
2018-09-16T07:27:34.798Z,6.57
2018-09-16T07:30:06.254Z,9.70
2018-09-16T07:32:36.336Z,9.60
2018-09-16T07:35:06.847Z,10.00
2018-09-16T07:37:37.106Z,8.90
2018-09-16T07:40:07.681Z,11.43
2018-09-16T07:42:38.142Z,8.27
2018-09-16T07:45:08.390Z,12.63
2018-09-16T07:47:38.710Z,9.70
2018-09-16T07:50:09.214Z,13.43
2018-09-16T07:52:39.014Z,6.53
2018-09-16T07:55:09.229Z,11.40
2018-09-16T07:57:39.480Z,17.10
2018-09-16T08:00:09.943Z,5.03
2018-09-16T08:02:40.053Z,5.40
2018-09-16T08:05:10.564Z,4.70
2018-09-16T08:07:40.716Z,4.47
2018-09-16T08:10:10.879Z,4.20
2018-09-16T08:12:41.044Z,3.60
2018-09-16T08:15:11.485Z,4.23
2018-09-16T08:17:41.900Z,4.80
2018-09-16T08:20:12.132Z,4.43
2018-09-16T08:22:42.522Z,4.13
2018-09-16T08:25:12.700Z,3.63
2018-09-16T08:27:42.980Z,4.43
2018-09-16T08:30:13.319Z,4.00
2018-09-16T08:32:43.429Z,3.60
2018-09-16T08:35:13.714Z,3.67
2018-09-16T08:37:44.347Z,4.20
2018-09-16T08:40:15.209Z,3.83
2018-09-16T08:42:46.076Z,3.70
2018-09-16T08:45:16.365Z,3.40
2018-09-16T08:47:46.590Z,3.77
2018-09-16T08:50:17.828Z,4.17
2018-09-16T08:52:48.055Z,4.03
2018-09-16T08:55:18.130Z,4.87
2018-09-16T08:57:48.476Z,3.30
2018-09-16T09:00:18.907Z,4.00
2018-09-16T09:02:49.193Z,3.83
2018-09-16T09:05:19.469Z,4.27
2018-09-16T09:07:49.874Z,3.20
2018-09-16T09:10:20.159Z,4.10
2018-09-16T09:12:50.412Z,4.50
2018-09-16T09:15:20.643Z,3.27
2018-09-16T09:17:50.740Z,3.30
2018-09-16T09:20:20.989Z,3.63
2018-09-16T09:22:51.501Z,3.40
2018-09-16T09:25:21.816Z,3.30
2018-09-16T09:27:51.870Z,3.70
2018-09-16T09:30:22.430Z,3.30
2018-09-16T09:32:52.667Z,3.13
2018-09-16T09:35:22.974Z,2.97
2018-09-16T09:37:53.222Z,2.97
2018-09-16T09:40:23.465Z,3.30
2018-09-16T09:42:54.131Z,3.30
2018-09-16T09:45:24.471Z,2.97
2018-09-16T09:47:54.975Z,3.50
2018-09-16T09:50:25.310Z,3.57
2018-09-16T09:52:55.531Z,2.93
2018-09-16T09:55:25.623Z,3.60
2018-09-16T09:57:56.033Z,3.27
2018-09-16T10:00:31.303Z,3.03
2018-09-16T10:03:01.700Z,3.40
2018-09-16T10:05:32.145Z,3.33
2018-09-16T10:08:02.396Z,3.00
2018-09-16T10:10:32.552Z,2.87
2018-09-16T10:13:02.755Z,3.63
2018-09-16T10:15:33.036Z,3.40
2018-09-16T10:18:03.296Z,3.77
2018-09-16T10:20:33.579Z,3.20
2018-09-16T10:23:04.246Z,2.90
2018-09-16T10:25:34.537Z,2.80
2018-09-16T10:28:04.807Z,2.90
2018-09-16T10:30:35.000Z,2.87
2018-09-16T10:33:05.622Z,3.57
2018-09-16T10:35:35.933Z,3.27
2018-09-16T10:38:06.256Z,3.33
2018-09-16T10:40:36.560Z,3.40
2018-09-16T10:43:06.651Z,2.87
2018-09-16T10:45:37.106Z,3.30
2018-09-16T10:48:07.265Z,3.10
2018-09-16T10:50:37.537Z,3.50
2018-09-16T10:53:07.977Z,3.23
2018-09-16T10:55:38.113Z,2.97
2018-09-16T10:58:08.361Z,3.50
2018-09-16T11:00:38.593Z,3.07
2018-09-16T11:03:08.863Z,2.93
2018-09-16T11:05:39.564Z,2.90
2018-09-16T11:08:09.843Z,3.03
2018-09-16T11:10:40.286Z,2.80
2018-09-16T11:13:10.492Z,3.17
2018-09-16T11:15:41.000Z,2.77
2018-09-16T11:18:11.244Z,2.93
2018-09-16T11:20:41.523Z,2.87
2018-09-16T11:23:11.765Z,2.83
2018-09-16T11:25:41.858Z,3.17
2018-09-16T11:28:12.040Z,3.20
2018-09-16T11:30:42.124Z,3.53
2018-09-16T11:33:12.143Z,2.90
2018-09-16T11:35:42.310Z,3.33
2018-09-16T11:38:12.705Z,3.47
2018-09-16T11:40:43.161Z,2.60
2018-09-16T11:43:13.494Z,3.37
2018-09-16T11:45:43.782Z,3.10
2018-09-16T11:48:14.114Z,2.77
2018-09-16T11:50:44.680Z,3.50
2018-09-16T11:53:14.816Z,3.10
2018-09-16T11:55:44.900Z,3.92
2018-09-16T11:58:15.539Z,2.67
2018-09-16T12:00:45.907Z,3.45
2018-09-16T12:03:16.689Z,3.00
2018-09-16T12:05:47.060Z,3.47
2018-09-16T12:08:17.318Z,3.25
2018-09-16T12:10:47.568Z,3.00
2018-09-16T12:13:17.947Z,2.83
2018-09-16T12:15:48.448Z,3.30
2018-09-16T12:18:18.506Z,3.10
2018-09-16T12:20:48.898Z,2.62
2018-09-16T12:23:19.177Z,2.98
2018-09-16T12:25:49.489Z,2.80
2018-09-16T12:28:19.884Z,2.80
2018-09-16T12:30:50.421Z,3.22
2018-09-16T12:33:20.519Z,3.33
2018-09-16T12:35:50.792Z,3.77
2018-09-16T12:38:21.132Z,3.00
2018-09-16T12:40:51.879Z,3.25
2018-09-16T12:43:22.887Z,3.10
2018-09-16T12:45:53.301Z,3.20
2018-09-16T12:48:23.609Z,3.45
2018-09-16T12:50:53.912Z,3.30
2018-09-16T12:53:23.981Z,2.85
2018-09-16T12:55:54.120Z,3.00
2018-09-16T12:58:24.456Z,3.07
2018-09-16T13:00:54.809Z,3.40
2018-09-16T13:03:25.186Z,3.77
2018-09-16T13:05:55.368Z,3.20
2018-09-16T13:08:26.660Z,3.20
2018-09-16T13:10:58.088Z,3.22
2018-09-16T13:13:28.378Z,3.40
2018-09-16T13:15:58.666Z,3.20
2018-09-16T13:18:28.692Z,3.47
2018-09-16T13:20:58.994Z,3.72
2018-09-16T13:23:29.307Z,3.20
2018-09-16T13:26:00.745Z,3.52
2018-09-16T13:28:30.869Z,3.42
2018-09-16T13:31:01.414Z,3.50
2018-09-16T13:33:31.512Z,3.70
2018-09-16T13:36:01.712Z,3.40
2018-09-16T13:38:31.917Z,2.95
2018-09-16T13:41:02.258Z,3.58
2018-09-16T13:43:32.700Z,3.47
2018-09-16T13:46:03.340Z,3.20
2018-09-16T13:48:33.634Z,3.65
2018-09-16T13:51:03.982Z,3.20
2018-09-16T13:53:34.130Z,3.30
2018-09-16T13:56:04.370Z,3.47
2018-09-16T13:58:34.595Z,3.22
2018-09-16T14:01:04.894Z,3.52
2018-09-16T14:03:35.382Z,3.12
2018-09-16T14:06:05.744Z,3.90
2018-09-16T14:08:36.272Z,3.47
2018-09-16T14:11:06.492Z,3.60
2018-09-16T14:13:36.617Z,3.30
2018-09-16T14:16:06.978Z,2.95
2018-09-16T14:18:37.323Z,3.70
2018-09-16T14:21:07.723Z,3.20
2018-09-16T14:23:37.935Z,3.10
2018-09-16T14:26:08.528Z,3.15
2018-09-16T14:28:38.997Z,3.58
2018-09-16T14:31:09.454Z,3.58
2018-09-16T14:33:39.464Z,3.50
2018-09-16T14:36:09.629Z,3.30
2018-09-16T14:38:39.793Z,3.37
2018-09-16T14:41:10.062Z,3.52
2018-09-16T14:43:41.696Z,3.80
2018-09-16T14:46:12.133Z,3.62
2018-09-16T14:48:42.513Z,3.98
2018-09-16T14:51:12.875Z,3.45
2018-09-16T14:53:42.932Z,3.50
2018-09-16T14:56:13.174Z,3.58
2018-09-16T14:58:43.390Z,3.50
2018-09-16T15:01:13.862Z,3.45
2018-09-16T15:03:44.285Z,3.50
2018-09-16T15:06:14.657Z,3.17
2018-09-16T15:08:44.776Z,3.33
2018-09-16T15:11:14.971Z,3.52
2018-09-16T15:13:45.238Z,3.43
2018-09-16T15:16:15.425Z,3.33
2018-09-16T15:18:45.658Z,3.80
2018-09-16T15:21:16.040Z,3.50
2018-09-16T15:23:46.266Z,3.50
2018-09-16T15:26:16.586Z,3.50
2018-09-16T15:28:47.672Z,3.00
2018-09-16T15:31:17.930Z,3.30
2018-09-16T15:33:47.980Z,6.17
2018-09-16T15:36:18.022Z,10.53
2018-09-16T15:38:48.341Z,13.40
2018-09-16T15:41:18.397Z,8.20
2018-09-16T15:43:48.694Z,4.00
2018-09-16T15:46:18.855Z,3.63
2018-09-16T15:48:48.972Z,3.57
2018-09-16T15:51:19.400Z,3.70
2018-09-16T15:53:50.573Z,3.40
2018-09-16T15:56:20.608Z,3.37
2018-09-16T15:58:50.932Z,3.63
2018-09-16T16:01:21.570Z,3.43
2018-09-16T16:03:52.842Z,3.50
2018-09-16T16:06:23.200Z,3.67
2018-09-16T16:08:53.624Z,3.57
2018-09-16T16:11:23.994Z,3.77
2018-09-16T16:13:54.109Z,3.77
2018-09-16T16:16:24.525Z,4.10
2018-09-16T16:18:54.726Z,4.07
2018-09-16T16:21:25.053Z,3.87
2018-09-16T16:23:55.219Z,3.37
2018-09-16T16:26:25.591Z,3.80
2018-09-16T16:28:55.628Z,4.10
2018-09-16T16:31:25.987Z,3.77
2018-09-16T16:33:56.193Z,4.00
2018-09-16T16:36:26.407Z,6.20
2018-09-16T16:38:56.598Z,6.10
2018-09-16T16:41:26.877Z,4.40
2018-09-16T16:43:56.858Z,4.57
2018-09-16T16:46:27.186Z,3.40
2018-09-16T16:48:57.454Z,4.67
2018-09-16T16:51:27.848Z,5.13
2018-09-16T16:53:57.940Z,4.33
2018-09-16T16:56:28.156Z,4.60
2018-09-16T16:58:58.738Z,5.03
2018-09-16T17:01:29.244Z,4.13
2018-09-16T17:03:59.470Z,4.67
2018-09-16T17:06:29.706Z,5.10
2018-09-16T17:08:59.952Z,5.67
2018-09-16T17:11:30.311Z,4.40
2018-09-16T17:14:00.548Z,4.20
2018-09-16T17:16:30.560Z,5.23
2018-09-16T17:19:00.843Z,5.23
2018-09-16T17:21:31.153Z,5.07
2018-09-16T17:24:01.548Z,4.53
2018-09-16T17:26:31.655Z,4.30
2018-09-16T17:29:02.152Z,4.43
2018-09-16T17:31:32.297Z,4.33
2018-09-16T17:34:02.404Z,4.30
2018-09-16T17:36:32.474Z,3.77
2018-09-16T17:39:02.852Z,4.30
2018-09-16T17:41:33.202Z,4.27
2018-09-16T17:44:03.275Z,3.80
2018-09-16T17:46:33.488Z,6.13
2018-09-16T17:49:03.852Z,4.70
2018-09-16T17:51:34.111Z,4.80
2018-09-16T17:54:04.166Z,4.37
2018-09-16T17:56:34.552Z,4.40
2018-09-16T17:59:04.910Z,4.57
2018-09-16T18:01:35.138Z,4.10
2018-09-16T18:04:05.300Z,5.20
2018-09-16T18:06:35.612Z,4.40
2018-09-16T18:09:08.599Z,4.70
2018-09-16T18:11:39.215Z,5.30
2018-09-16T18:14:09.546Z,8.30
2018-09-16T18:16:40.070Z,11.00
2018-09-16T18:19:10.317Z,9.43
2018-09-16T18:21:40.758Z,8.73
2018-09-16T18:24:10.873Z,11.63
2018-09-16T18:26:41.213Z,11.40
2018-09-16T18:29:11.647Z,10.97
2018-09-16T18:31:42.341Z,10.33
2018-09-16T18:34:12.397Z,9.07
2018-09-16T18:36:42.527Z,9.50
2018-09-16T18:39:13.238Z,10.27
2018-09-16T18:41:43.511Z,8.97
2018-09-16T18:44:13.739Z,9.00
2018-09-16T18:46:44.287Z,8.43
2018-09-16T18:49:14.634Z,7.80
2018-09-16T18:51:44.801Z,8.00
2018-09-16T18:54:14.920Z,6.73
2018-09-16T18:56:45.058Z,6.50
2018-09-16T18:59:15.707Z,6.47
2018-09-16T19:01:46.047Z,5.87
2018-09-16T19:04:17.116Z,5.83
2018-09-16T19:06:47.573Z,5.63
2018-09-16T19:09:19.442Z,6.00
2018-09-16T19:11:49.611Z,5.90
2018-09-16T19:14:19.763Z,5.70
2018-09-16T19:16:50.341Z,6.10
2018-09-16T19:19:21.639Z,5.90
2018-09-16T19:21:51.858Z,5.90
2018-09-16T19:24:22.292Z,5.30
2018-09-16T19:26:52.696Z,5.60
2018-09-16T19:29:23.043Z,5.20
2018-09-16T19:31:53.368Z,4.60
2018-09-16T19:34:23.572Z,5.13
2018-09-16T19:36:53.746Z,5.20
2018-09-16T19:39:23.991Z,4.80
2018-09-16T19:41:54.586Z,4.70
2018-09-16T19:44:24.812Z,4.83
2018-09-16T19:46:55.205Z,4.67
2018-09-16T19:49:25.450Z,4.50
2018-09-16T19:51:55.605Z,5.53
2018-09-16T19:54:25.845Z,5.93
2018-09-16T19:56:56.165Z,5.87
2018-09-16T19:59:26.252Z,8.50
2018-09-16T20:01:56.659Z,7.73
2018-09-16T20:04:27.023Z,9.17
2018-09-16T20:06:57.255Z,8.73
2018-09-16T20:09:27.487Z,9.97
2018-09-16T20:11:57.764Z,9.63
2018-09-16T20:14:27.842Z,9.90
2018-09-16T20:16:58.002Z,10.07
2018-09-16T20:19:28.300Z,9.87
2018-09-16T20:21:58.625Z,10.13
2018-09-16T20:24:28.773Z,10.43
2018-09-16T20:27:00.007Z,10.20
2018-09-16T20:29:30.379Z,10.60
2018-09-16T20:32:01.465Z,9.90
2018-09-16T20:34:31.595Z,11.17
2018-09-16T20:37:01.707Z,11.50
2018-09-16T20:39:32.118Z,13.07
2018-09-16T20:42:02.443Z,13.37
2018-09-16T20:44:32.572Z,12.77
2018-09-16T20:47:02.674Z,13.60
2018-09-16T20:49:32.822Z,13.07
2018-09-16T20:52:03.309Z,13.30
2018-09-16T20:54:33.185Z,12.63
2018-09-16T20:57:03.555Z,13.40
2018-09-16T20:59:34.546Z,13.17
2018-09-16T21:02:05.728Z,13.00
2018-09-16T21:04:37.249Z,13.30
2018-09-16T21:07:08.612Z,13.40
2018-09-16T21:09:39.958Z,13.77
2018-09-16T21:12:12.123Z,13.43
2018-09-16T21:14:43.374Z,13.77
2018-09-16T21:17:15.310Z,13.73
2018-09-16T21:19:45.897Z,13.43
2018-09-16T21:22:16.857Z,13.37
2018-09-16T21:24:47.335Z,13.77
2018-09-16T21:27:18.354Z,13.40
2018-09-16T21:29:49.187Z,13.23
2018-09-16T21:32:20.319Z,11.87
2018-09-16T21:34:51.601Z,11.80
2018-09-16T21:37:22.875Z,12.27
2018-09-16T21:39:53.923Z,11.77
2018-09-16T21:42:25.352Z,11.07
2018-09-16T21:44:56.418Z,11.57
2018-09-16T21:47:28.191Z,11.10
2018-09-16T21:49:59.716Z,11.90
2018-09-16T21:52:31.552Z,11.43
2018-09-16T21:55:02.729Z,11.03
2018-09-16T21:57:33.941Z,11.23
2018-09-16T22:00:04.881Z,11.20
2018-09-16T22:02:36.898Z,11.63
2018-09-16T22:05:08.146Z,10.47
2018-09-16T22:07:39.228Z,10.60
2018-09-16T22:10:10.381Z,10.37
2018-09-16T22:12:41.803Z,10.83
2018-09-16T22:15:12.439Z,11.07
2018-09-16T22:17:44.229Z,10.47
2018-09-16T22:20:15.298Z,11.27
2018-09-16T22:22:46.316Z,10.93
2018-09-16T22:25:17.384Z,11.80
2018-09-16T22:27:48.966Z,11.90
2018-09-16T22:30:19.469Z,11.90
2018-09-16T22:32:49.725Z,11.93
2018-09-16T22:35:22.366Z,11.60
2018-09-16T22:37:53.792Z,13.47
2018-09-16T22:40:25.340Z,12.00
2018-09-16T22:42:55.761Z,11.27
2018-09-16T22:45:26.835Z,12.27
2018-09-16T22:47:57.666Z,12.23
2018-09-16T22:50:29.301Z,12.10
2018-09-16T22:53:00.510Z,13.10
2018-09-16T22:55:32.206Z,12.13
2018-09-16T22:58:03.430Z,12.47
2018-09-16T23:00:34.380Z,12.20
2018-09-16T23:03:05.844Z,12.10
2018-09-16T23:05:36.828Z,12.37
2018-09-16T23:08:07.957Z,13.40
2018-09-16T23:10:39.486Z,13.43
2018-09-16T23:13:09.641Z,12.77
2018-09-16T23:15:41.355Z,12.93
2018-09-16T23:18:13.106Z,14.00
2018-09-16T23:20:44.464Z,13.17
2018-09-16T23:23:14.958Z,13.00
2018-09-16T23:25:46.050Z,12.97
2018-09-16T23:28:17.591Z,12.57
2018-09-16T23:30:49.046Z,14.63
2018-09-16T23:33:21.022Z,15.33
2018-09-16T23:35:52.506Z,14.27
2018-09-16T23:38:23.475Z,14.07
2018-09-16T23:40:54.726Z,14.27
2018-09-16T23:43:25.827Z,14.73
2018-09-16T23:45:56.110Z,14.10
2018-09-16T23:48:26.362Z,14.30
2018-09-16T23:50:57.980Z,13.87
2018-09-16T23:53:28.992Z,13.07
2018-09-16T23:56:00.490Z,14.03
2018-09-16T23:58:31.832Z,14.80
